Time;durP1;ratioP1;P1;durP2;ratioP2;P2;SDS_P1;SDS_P2;PMS_P1;PMS_P2;Temp;Humidity;BMP_temperature;BMP_pressure;BME280_temperature;BME280_humidity;BME280_pressure;Samples;Min_cycle;Max_cycle;Signal;HPM_P1;HPM_P2
2021/07/10 00:00:26;;;;;;;33.15;23.00;;;20.70;99.90;;;;;;5104405;28;20168;-71
2021/07/10 00:02:52;;;;;;;41.95;24.15;;;20.70;99.90;;;;;;5105832;28;20159;-71
2021/07/10 00:05:17;;;;;;;39.25;25.60;;;20.80;99.90;;;;;;5105838;28;20213;-71
2021/07/10 00:07:44;;;;;;;39.10;24.23;;;20.80;99.90;;;;;;5105656;28;20171;-71
2021/07/10 00:10:12;;;;;;;34.65;23.02;;;20.60;99.90;;;;;;5105809;28;20158;-71
2021/07/10 00:12:39;;;;;;;32.75;21.98;;;20.50;99.90;;;;;;5104012;28;20163;-71
2021/07/10 00:15:08;;;;;;;33.83;22.40;;;20.30;99.90;;;;;;5106234;28;20164;-71
2021/07/10 00:17:34;;;;;;;39.15;23.73;;;20.30;99.90;;;;;;5106085;28;20531;-71
2021/07/10 00:19:59;;;;;;;34.47;24.10;;;20.10;99.90;;;;;;5087731;28;20187;-71
2021/07/10 00:22:25;;;;;;;36.33;24.17;;;20.20;99.90;;;;;;5103041;28;20238;-70
2021/07/10 00:24:51;;;;;;;41.60;23.40;;;20.30;99.90;;;;;;5105963;28;20191;-71
2021/07/10 00:27:17;;;;;;;32.30;23.48;;;20.50;99.90;;;;;;5105731;28;20219;-71
2021/07/10 00:29:43;;;;;;;31.40;22.52;;;20.30;99.90;;;;;;5105791;28;20163;-71
2021/07/10 00:32:08;;;;;;;34.13;23.60;;;20.20;99.90;;;;;;5103266;28;20167;-71
2021/07/10 00:34:34;;;;;;;34.90;22.60;;;20.00;99.90;;;;;;5105768;28;20292;-71
2021/07/10 00:36:59;;;;;;;32.90;22.88;;;19.90;99.90;;;;;;5105909;28;20175;-71
2021/07/10 00:39:25;;;;;;;38.78;23.83;;;19.80;99.90;;;;;;5105327;28;20235;-71
2021/07/10 00:41:51;;;;;;;35.08;23.17;;;19.90;99.90;;;;;;5103277;28;20189;-71
2021/07/10 00:44:16;;;;;;;35.55;23.25;;;20.00;99.90;;;;;;5105377;28;20183;-71
2021/07/10 00:46:42;;;;;;;35.10;23.15;;;20.10;99.90;;;;;;5106731;28;20184;-71
2021/07/10 00:49:08;;;;;;;38.15;24.80;;;20.10;99.90;;;;;;5091580;28;20199;-71
2021/07/10 00:51:34;;;;;;;39.47;23.15;;;20.20;99.90;;;;;;5107094;28;20163;-72
2021/07/10 00:54:00;;;;;;;34.00;23.33;;;20.20;99.90;;;;;;5109392;28;20175;-71
2021/07/10 00:56:26;;;;;;;36.25;23.83;;;20.10;99.90;;;;;;5109459;28;20208;-71
2021/07/10 00:58:53;;;;;;;32.40;23.58;;;20.10;99.90;;;;;;5109565;28;20179;-71
2021/07/10 01:01:19;;;;;;;36.42;23.00;;;20.10;99.90;;;;;;5106857;28;20284;-71
2021/07/10 01:03:45;;;;;;;34.40;23.08;;;20.00;99.90;;;;;;5109650;28;20155;-71
2021/07/10 01:06:12;;;;;;;32.28;21.42;;;19.70;99.90;;;;;;5109351;28;20160;-71
2021/07/10 01:08:38;;;;;;;26.85;20.00;;;19.40;99.90;;;;;;5109280;28;20168;-71
2021/07/10 01:11:04;;;;;;;26.67;18.85;;;19.30;99.90;;;;;;5107024;28;20645;-71
2021/07/10 01:13:30;;;;;;;25.55;18.75;;;19.30;99.90;;;;;;5109342;28;20167;-71
2021/07/10 01:15:56;;;;;;;21.88;17.88;;;19.50;99.90;;;;;;5109429;28;20191;-71
2021/07/10 01:18:22;;;;;;;19.38;16.42;;;19.70;99.90;;;;;;5109173;28;20182;-71
2021/07/10 01:20:52;;;;;;;23.95;18.52;;;19.70;99.90;;;;;;5106716;28;20163;-71
2021/07/10 01:23:19;;;;;;;19.92;17.20;;;19.80;99.90;;;;;;5108852;28;20172;-71
2021/07/10 01:25:46;;;;;;;29.83;20.48;;;19.50;99.90;;;;;;5090981;28;20206;-71
2021/07/10 01:28:13;;;;;;;36.60;17.63;;;19.30;99.90;;;;;;5090737;28;20223;-71
2021/07/10 01:30:39;;;;;;;20.92;16.30;;;19.20;99.90;;;;;;5106417;28;20169;-71
2021/07/10 01:33:06;;;;;;;19.48;16.05;;;18.90;99.90;;;;;;5109248;28;20166;-71
2021/07/10 01:35:32;;;;;;;20.15;15.93;;;18.80;99.90;;;;;;5108724;28;20242;-71
2021/07/10 01:38:00;;;;;;;19.77;15.52;;;18.80;99.90;;;;;;5108661;28;20179;-71
2021/07/10 01:40:26;;;;;;;19.00;15.65;;;18.90;99.90;;;;;;5107080;28;20168;-71
2021/07/10 01:42:52;;;;;;;21.05;15.20;;;18.90;99.90;;;;;;5108445;28;20162;-71
2021/07/10 01:45:20;;;;;;;17.60;14.75;;;18.90;99.90;;;;;;5108890;28;20218;-71
2021/07/10 01:47:50;;;;;;;20.55;17.13;;;18.90;99.90;;;;;;5090639;28;20159;-71
2021/07/10 01:50:17;;;;;;;23.10;16.23;;;19.00;99.90;;;;;;5089532;28;20270;-71
2021/07/10 01:52:43;;;;;;;18.30;15.80;;;19.00;99.90;;;;;;5106609;28;20155;-71
2021/07/10 01:55:11;;;;;;;25.05;17.15;;;19.00;99.90;;;;;;5108738;28;20252;-71
2021/07/10 01:57:38;;;;;;;24.52;16.58;;;19.10;99.90;;;;;;5108126;28;20160;-71
2021/07/10 02:00:13;;;;;;;23.23;17.58;;;19.30;99.90;;;;;;5107863;28;20167;-71
2021/07/10 02:02:39;;;;;;;24.50;17.70;;;19.20;99.90;;;;;;5106755;28;20212;-71
2021/07/10 02:05:06;;;;;;;23.20;19.40;;;19.00;99.90;;;;;;5108396;28;20209;-71
2021/07/10 02:07:32;;;;;;;24.15;17.73;;;19.00;99.90;;;;;;5108047;28;20164;-71
2021/07/10 02:09:58;;;;;;;26.98;18.80;;;19.00;99.90;;;;;;5108392;28;20166;-71
2021/07/10 02:12:24;;;;;;;20.75;16.13;;;18.90;99.90;;;;;;5105485;28;20167;-71
2021/07/10 02:14:49;;;;;;;17.88;15.05;;;18.80;99.90;;;;;;5108309;28;20163;-71
2021/07/10 02:17:15;;;;;;;18.48;13.77;;;18.80;99.90;;;;;;5089713;28;20164;-71
2021/07/10 02:19:41;;;;;;;16.83;14.13;;;18.90;99.90;;;;;;5108078;28;20174;-71
2021/07/10 02:22:08;;;;;;;25.15;16.17;;;18.80;99.90;;;;;;5105324;28;20193;-71
2021/07/10 02:24:34;;;;;;;23.98;17.65;;;18.80;99.90;;;;;;5107676;28;20191;-71
2021/07/10 02:27:00;;;;;;;24.80;19.10;;;18.90;99.90;;;;;;5107876;28;20163;-71
2021/07/10 02:29:26;;;;;;;28.48;18.88;;;18.80;99.90;;;;;;5107785;28;20231;-71
2021/07/10 02:31:52;;;;;;;28.00;19.42;;;18.70;99.90;;;;;;5086974;28;20213;-71
2021/07/10 02:34:17;;;;;;;27.00;19.13;;;18.60;99.90;;;;;;5107679;28;20167;-71
2021/07/10 02:36:43;;;;;;;24.67;17.55;;;18.50;99.90;;;;;;5107706;28;20178;-71
2021/07/10 02:39:09;;;;;;;24.58;18.77;;;18.50;99.90;;;;;;5107221;28;20206;-71
2021/07/10 02:41:35;;;;;;;25.08;18.35;;;18.50;99.90;;;;;;5105250;28;20181;-71
2021/07/10 02:44:00;;;;;;;24.25;18.08;;;18.50;99.90;;;;;;5107722;28;20270;-71
2021/07/10 02:46:26;;;;;;;25.23;17.75;;;18.50;99.90;;;;;;5107602;28;20151;-71
2021/07/10 02:48:52;;;;;;;23.15;17.17;;;18.60;99.90;;;;;;5107583;28;20551;-71
2021/07/10 02:51:17;;;;;;;22.83;16.52;;;18.90;99.90;;;;;;5104804;28;20208;-71
2021/07/10 02:53:43;;;;;;;19.02;17.05;;;19.00;99.90;;;;;;5107292;28;20189;-71
2021/07/10 02:56:09;;;;;;;22.85;17.33;;;19.20;99.90;;;;;;5107395;28;20163;-71
2021/07/10 02:58:34;;;;;;;24.80;19.25;;;18.90;99.90;;;;;;5107486;28;20171;-71
2021/07/10 03:01:00;;;;;;;26.48;20.55;;;18.50;99.90;;;;;;5104907;28;20170;-71
2021/07/10 03:03:26;;;;;;;34.55;22.45;;;18.40;99.90;;;;;;5107223;28;20159;-71
2021/07/10 03:05:51;;;;;;;32.35;21.88;;;18.30;99.90;;;;;;5107096;28;20191;-71
2021/07/10 03:08:20;;;;;;;36.13;22.52;;;18.30;99.90;;;;;;5106778;28;20172;-71
2021/07/10 03:10:47;;;;;;;34.55;22.13;;;18.30;99.90;;;;;;5104330;28;20405;-72
2021/07/10 03:13:14;;;;;;;30.65;20.60;;;18.30;99.90;;;;;;5107021;28;20187;-71
2021/07/10 03:15:39;;;;;;;34.10;21.55;;;18.20;99.90;;;;;;5107287;28;20171;-71
2021/07/10 03:18:05;;;;;;;34.47;21.75;;;18.10;99.90;;;;;;5088929;28;20163;-71
2021/07/10 03:20:31;;;;;;;34.53;22.33;;;18.20;99.90;;;;;;5104518;28;20191;-72
2021/07/10 03:22:58;;;;;;;32.47;21.42;;;18.30;99.90;;;;;;5106517;28;20167;-71
2021/07/10 03:25:24;;;;;;;32.08;22.80;;;18.60;99.90;;;;;;5106790;28;20187;-71
2021/07/10 03:27:50;;;;;;;34.55;22.40;;;18.70;99.90;;;;;;5106939;28;20174;-71
2021/07/10 03:30:21;;;;;;;37.15;23.55;;;18.80;99.90;;;;;;5105800;28;20163;-71
2021/07/10 03:32:47;;;;;;;32.35;21.25;;;18.70;99.90;;;;;;5105748;28;20155;-71
2021/07/10 03:35:17;;;;;;;28.17;20.58;;;18.50;99.90;;;;;;5106331;28;20270;-71
2021/07/10 03:37:43;;;;;;;25.30;20.20;;;18.20;99.90;;;;;;5088286;28;20179;-71
2021/07/10 03:40:11;;;;;;;29.20;19.85;;;18.10;99.90;;;;;;5106541;28;20233;-71
2021/07/10 03:42:37;;;;;;;31.45;18.63;;;17.90;99.90;;;;;;5104565;28;20219;-71
2021/07/10 03:45:05;;;;;;;28.13;20.00;;;17.80;99.90;;;;;;5106702;28;20195;-71
2021/07/10 03:47:31;;;;;;;26.13;18.98;;;17.80;99.90;;;;;;5106443;28;20155;-71
2021/07/10 03:49:58;;;;;;;25.90;18.38;;;17.90;99.90;;;;;;5088292;28;20175;-71
2021/07/10 03:52:23;;;;;;;26.77;18.63;;;17.90;99.90;;;;;;5103495;28;20214;-71
2021/07/10 03:54:49;;;;;;;29.63;20.75;;;18.00;99.90;;;;;;5106388;28;20179;-72
2021/07/10 03:57:15;;;;;;;30.05;21.50;;;18.10;99.90;;;;;;5088086;28;20167;-71
2021/07/10 03:59:40;;;;;;;38.10;21.98;;;18.30;99.90;;;;;;5106203;28;20178;-71
2021/07/10 04:02:06;;;;;;;30.42;21.38;;;18.20;99.90;;;;;;5103720;28;20184;-72
2021/07/10 04:04:32;;;;;;;43.10;22.42;;;18.30;99.90;;;;;;5106060;28;20213;-71
2021/07/10 04:06:57;;;;;;;34.60;20.42;;;18.50;99.90;;;;;;5087892;28;20209;-71
2021/07/10 04:09:23;;;;;;;36.05;22.15;;;18.70;99.90;;;;;;5105549;28;20234;-71
2021/07/10 04:11:49;;;;;;;32.72;22.27;;;18.70;99.90;;;;;;5085330;28;20168;-72
2021/07/10 04:14:15;;;;;;;34.70;21.42;;;18.60;99.90;;;;;;5105987;28;20159;-71
2021/07/10 04:16:41;;;;;;;27.48;19.73;;;18.60;99.90;;;;;;5106098;28;20174;-72
2021/07/10 04:19:06;;;;;;;34.97;22.38;;;18.60;99.90;;;;;;5106022;28;20171;-71
2021/07/10 04:21:32;;;;;;;33.67;21.08;;;18.50;99.90;;;;;;5102558;28;20189;-72
2021/07/10 04:23:57;;;;;;;38.65;22.70;;;18.80;99.90;;;;;;5105781;28;20171;-71
2021/07/10 04:26:23;;;;;;;32.67;21.10;;;18.80;99.90;;;;;;5105740;28;20170;-71
2021/07/10 04:28:49;;;;;;;38.38;23.25;;;18.60;99.90;;;;;;5105889;28;20162;-71
2021/07/10 04:31:14;;;;;;;39.42;22.98;;;18.60;99.90;;;;;;5103251;28;20159;-71
2021/07/10 04:33:40;;;;;;;38.00;22.30;;;18.50;99.90;;;;;;5105922;28;20178;-72
2021/07/10 04:36:06;;;;;;;31.67;21.40;;;18.50;99.90;;;;;;5105568;28;20215;-71
2021/07/10 04:38:31;;;;;;;36.30;22.08;;;18.50;99.90;;;;;;5105334;28;20179;-71
2021/07/10 04:40:58;;;;;;;34.47;21.45;;;18.80;99.90;;;;;;5085005;28;20163;-71
2021/07/10 04:43:23;;;;;;;40.47;21.58;;;19.10;99.90;;;;;;5105610;28;20578;-71
2021/07/10 04:45:49;;;;;;;33.90;21.60;;;19.00;99.90;;;;;;5105498;28;20191;-71
2021/07/10 04:48:15;;;;;;;31.50;20.00;;;18.80;99.90;;;;;;5105347;28;20637;-71
2021/07/10 04:50:40;;;;;;;25.83;19.40;;;18.60;99.90;;;;;;5103009;28;20572;-71
2021/07/10 04:53:06;;;;;;;29.58;20.02;;;18.50;99.90;;;;;;5105630;28;20171;-71
2021/07/10 04:55:32;;;;;;;30.20;21.52;;;18.40;99.90;;;;;;5105535;28;20171;-71
2021/07/10 04:57:57;;;;;;;33.40;21.20;;;18.40;99.90;;;;;;5105688;28;20159;-71
2021/07/10 05:00:24;;;;;;;38.50;21.80;;;18.50;99.90;;;;;;5103760;28;20163;-71
2021/07/10 05:02:50;;;;;;;32.88;20.85;;;18.70;99.90;;;;;;5104916;28;20155;-71
2021/07/10 05:05:16;;;;;;;36.05;22.33;;;18.90;99.90;;;;;;5105335;28;20194;-71
2021/07/10 05:07:43;;;;;;;41.97;23.60;;;19.20;99.90;;;;;;5105135;28;20272;-70
2021/07/10 05:10:09;;;;;;;40.65;23.88;;;19.40;99.90;;;;;;5087103;28;20242;-71
2021/07/10 05:12:35;;;;;;;39.42;24.35;;;19.60;99.90;;;;;;5103160;28;20156;-71
2021/07/10 05:15:00;;;;;;;40.50;23.83;;;19.50;99.90;;;;;;5105533;28;20164;-71
2021/07/10 05:17:26;;;;;;;42.50;23.60;;;19.70;99.90;;;;;;5105286;28;20250;-71
2021/07/10 05:19:51;;;;;;;39.22;23.08;;;19.60;99.90;;;;;;5105383;28;20246;-72
2021/07/10 05:22:17;;;;;;;38.70;25.73;;;19.50;99.90;;;;;;5102583;28;20167;-71
2021/07/10 05:24:43;;;;;;;40.03;24.38;;;19.60;99.90;;;;;;5086916;28;20198;-71
2021/07/10 05:27:09;;;;;;;48.67;27.02;;;19.70;99.90;;;;;;5105301;28;20202;-72
2021/07/10 05:29:35;;;;;;;40.47;26.20;;;19.80;99.90;;;;;;5105360;28;20223;-71
2021/07/10 05:32:01;;;;;;;42.25;25.65;;;19.70;99.90;;;;;;5102567;28;20160;-71
2021/07/10 05:34:27;;;;;;;41.45;26.05;;;19.90;99.90;;;;;;5108645;28;20159;-71
2021/07/10 05:36:53;;;;;;;44.08;26.02;;;20.00;99.90;;;;;;5108922;28;20690;-71
2021/07/10 05:39:19;;;;;;;39.22;26.17;;;20.00;99.90;;;;;;5108338;28;20171;-71
2021/07/10 05:41:46;;;;;;;43.67;26.83;;;20.10;99.90;;;;;;5106305;28;20209;-72
2021/07/10 05:44:12;;;;;;;41.90;25.70;;;20.10;99.90;;;;;;5108573;28;20195;-72
2021/07/10 05:46:37;;;;;;;44.20;27.25;;;20.10;99.90;;;;;;5108826;28;20163;-71
2021/07/10 05:49:03;;;;;;;44.40;28.05;;;20.20;99.90;;;;;;5108745;28;20166;-71
2021/07/10 05:51:29;;;;;;;51.88;28.20;;;20.50;99.90;;;;;;5105901;28;20163;-71
2021/07/10 05:53:54;;;;;;;49.58;28.42;;;20.50;99.90;;;;;;5108496;28;20171;-71
2021/07/10 05:56:20;;;;;;;51.95;28.88;;;20.40;99.90;;;;;;5108304;28;20621;-71
2021/07/10 05:58:46;;;;;;;45.85;27.20;;;20.40;99.90;;;;;;5108431;28;20155;-71
2021/07/10 06:01:12;;;;;;;42.95;27.60;;;20.40;99.90;;;;;;5105706;28;20185;-71
2021/07/10 06:03:38;;;;;;;41.63;26.52;;;20.40;99.90;;;;;;5108490;28;20214;-71
2021/07/10 06:06:03;;;;;;;46.65;28.55;;;20.60;99.90;;;;;;5108363;28;20183;-71
2021/07/10 06:08:29;;;;;;;52.97;28.17;;;20.60;99.90;;;;;;5107626;28;20205;-71
2021/07/10 06:10:55;;;;;;;47.25;26.27;;;20.50;99.90;;;;;;5105824;28;20159;-71
2021/07/10 06:13:21;;;;;;;50.42;27.98;;;20.60;99.90;;;;;;5108167;28;20231;-72
2021/07/10 06:15:46;;;;;;;45.08;27.02;;;20.70;99.90;;;;;;5108268;28;20164;-71
2021/07/10 06:18:12;;;;;;;52.53;28.63;;;20.80;99.90;;;;;;5107818;28;20630;-71
2021/07/10 06:20:39;;;;;;;43.17;26.40;;;20.80;99.90;;;;;;5105319;28;20182;-71
2021/07/10 06:23:06;;;;;;;49.40;27.70;;;20.90;99.90;;;;;;5107742;28;20167;-70
2021/07/10 06:25:37;;;;;;;39.60;26.40;;;20.90;99.90;;;;;;5107888;28;20197;-71
2021/07/10 06:28:06;;;;;;;45.45;27.83;;;20.90;99.90;;;;;;5107927;28;20159;-71
2021/07/10 06:30:32;;;;;;;49.33;28.27;;;20.90;99.90;;;;;;5105158;28;20310;-70
2021/07/10 06:32:58;;;;;;;43.80;28.13;;;20.90;99.90;;;;;;5107891;28;20239;-71
2021/07/10 06:35:24;;;;;;;41.50;26.73;;;21.00;99.90;;;;;;5107683;28;20199;-71
2021/07/10 06:37:50;;;;;;;44.70;26.70;;;20.80;99.90;;;;;;5107332;28;20167;-72
2021/07/10 06:40:17;;;;;;;46.72;27.17;;;20.80;99.90;;;;;;5106900;28;20224;-72
2021/07/10 06:42:44;;;;;;;47.20;26.58;;;20.90;99.90;;;;;;5106181;28;20160;-72
2021/07/10 06:45:13;;;;;;;46.58;27.70;;;21.00;99.90;;;;;;5106673;28;20183;-72
2021/07/10 06:47:39;;;;;;;42.50;25.73;;;21.30;99.90;;;;;;5107623;28;20223;-72
2021/07/10 06:50:07;;;;;;;42.92;25.73;;;21.40;99.90;;;;;;5107486;28;20224;-72
2021/07/10 06:52:33;;;;;;;42.25;24.95;;;21.50;99.90;;;;;;5104857;28;20158;-71
2021/07/10 06:54:59;;;;;;;46.35;24.70;;;21.70;99.90;;;;;;5107252;28;20179;-72
2021/07/10 06:57:25;;;;;;;42.65;25.10;;;21.80;99.90;;;;;;5107224;28;20163;-72
2021/07/10 06:59:50;;;;;;;43.65;25.25;;;22.00;99.90;;;;;;5107072;28;20212;-72
2021/07/10 07:02:16;;;;;;;38.45;23.02;;;21.90;99.90;;;;;;5104443;28;20449;-72
2021/07/10 07:04:42;;;;;;;34.58;22.25;;;21.90;99.90;;;;;;5107266;28;20568;-72
2021/07/10 07:07:08;;;;;;;39.40;22.70;;;21.80;99.90;;;;;;5107193;28;20163;-72
2021/07/10 07:09:34;;;;;;;30.95;18.70;;;21.80;99.90;;;;;;5088411;28;20167;-72
2021/07/10 07:11:59;;;;;;;42.33;20.38;;;22.00;99.90;;;;;;5086340;28;20171;-72
2021/07/10 07:14:25;;;;;;;31.00;20.08;;;22.20;99.90;;;;;;5106523;28;20301;-72
2021/07/10 07:16:51;;;;;;;42.08;21.02;;;22.30;99.90;;;;;;5106894;28;20162;-72
2021/07/10 07:19:17;;;;;;;31.23;19.60;;;22.30;99.90;;;;;;5106483;28;20178;-72
2021/07/10 07:21:42;;;;;;;37.25;20.65;;;22.40;99.90;;;;;;5085950;28;20159;-72
2021/07/10 07:24:08;;;;;;;30.17;18.95;;;22.40;99.90;;;;;;5106665;28;20179;-71
2021/07/10 07:26:35;;;;;;;28.63;18.27;;;22.40;99.90;;;;;;5106978;28;20158;-71
2021/07/10 07:29:02;;;;;;;25.95;18.10;;;22.60;99.90;;;;;;5106818;28;20151;-71
2021/07/10 07:31:27;;;;;;;28.80;18.95;;;22.50;99.90;;;;;;5104051;28;20179;-72
2021/07/10 07:33:53;;;;;;;30.83;20.00;;;22.70;99.90;;;;;;5088106;28;20170;-71
2021/07/10 07:36:18;;;;;;;30.63;18.77;;;22.90;99.90;;;;;;5106182;28;20256;-72
2021/07/10 07:38:44;;;;;;;27.58;18.40;;;22.60;99.90;;;;;;5106207;28;20156;-72
2021/07/10 07:41:10;;;;;;;31.02;17.90;;;22.50;99.90;;;;;;5103876;28;20162;-71
2021/07/10 07:43:35;;;;;;;24.10;17.30;;;22.50;99.90;;;;;;5106067;28;20166;-72
2021/07/10 07:46:02;;;;;;;23.95;17.08;;;22.50;99.90;;;;;;5105786;28;20236;-72
2021/07/10 07:48:28;;;;;;;23.80;15.35;;;22.60;99.90;;;;;;5105807;28;20182;-72
2021/07/10 07:50:53;;;;;;;22.83;15.43;;;22.70;99.90;;;;;;5103682;28;20222;-72
2021/07/10 07:53:19;;;;;;;31.77;17.65;;;22.80;99.90;;;;;;5105947;28;20273;-71
2021/07/10 07:55:48;;;;;;;29.45;17.17;;;22.90;99.90;;;;;;5106166;28;20174;-71
2021/07/10 07:58:14;;;;;;;20.10;14.73;;;23.10;99.90;;;;;;5106079;28;20159;-72
2021/07/10 08:00:40;;;;;;;21.92;14.70;;;23.00;99.90;;;;;;5103521;28;20239;-71
2021/07/10 08:03:06;;;;;;;25.67;13.80;;;23.20;99.90;;;;;;5105604;28;20212;-72
2021/07/10 08:05:32;;;;;;;24.13;14.07;;;23.20;99.90;;;;;;5106126;28;20553;-71
2021/07/10 08:07:57;;;;;;;20.05;13.23;;;23.30;99.90;;;;;;5105940;28;20179;-71
2021/07/10 08:10:23;;;;;;;20.63;12.85;;;23.40;99.90;;;;;;5104539;28;20225;-71
2021/07/10 08:12:53;;;;;;;16.17;12.60;;;23.60;99.90;;;;;;5105242;28;20170;-71
2021/07/10 08:15:21;;;;;;;17.58;11.90;;;23.70;99.90;;;;;;5105926;28;20276;-72
2021/07/10 08:17:48;;;;;;;18.27;12.10;;;23.80;99.90;;;;;;5105990;28;20167;-72
2021/07/10 08:20:18;;;;;;;20.52;12.25;;;24.00;99.90;;;;;;5105299;28;20168;-71
2021/07/10 08:22:46;;;;;;;16.67;12.10;;;24.00;99.90;;;;;;5104436;28;20156;-71
2021/07/10 08:25:13;;;;;;;14.93;11.68;;;23.70;99.90;;;;;;5105651;28;20737;-71
2021/07/10 08:27:40;;;;;;;22.35;13.13;;;23.60;99.90;;;;;;5105838;28;20159;-72
2021/07/10 08:30:08;;;;;;;15.50;12.25;;;23.70;99.90;;;;;;5105988;28;20163;-71
2021/07/10 08:32:34;;;;;;;20.13;11.73;;;23.60;99.90;;;;;;5103206;28;20181;-72
2021/07/10 08:34:59;;;;;;;20.75;11.57;;;23.60;99.90;;;;;;5105566;28;20223;-71
2021/07/10 08:37:25;;;;;;;17.60;12.38;;;23.80;99.90;;;;;;5105613;28;20174;-71
2021/07/10 08:39:51;;;;;;;15.45;10.60;;;23.90;99.90;;;;;;5105522;28;20239;-71
2021/07/10 08:42:18;;;;;;;14.20;9.95;;;23.90;99.90;;;;;;5103077;28;20655;-71
2021/07/10 08:44:51;;;;;;;16.75;10.18;;;24.00;99.90;;;;;;5105638;28;20190;-71
2021/07/10 08:47:17;;;;;;;11.63;8.07;;;24.30;99.90;;;;;;5105593;28;20155;-70
2021/07/10 08:49:43;;;;;;;12.60;8.95;;;24.50;99.90;;;;;;5105712;28;20170;-71
2021/07/10 08:52:09;;;;;;;15.30;9.25;;;24.50;99.90;;;;;;5084808;28;20167;-71
2021/07/10 08:54:36;;;;;;;10.57;8.77;;;24.40;99.90;;;;;;5105347;28;20175;-71
2021/07/10 08:57:04;;;;;;;16.55;9.45;;;24.50;99.90;;;;;;5105667;28;20163;-71
2021/07/10 08:59:29;;;;;;;15.45;8.60;;;24.60;99.90;;;;;;5105358;28;20263;-70
2021/07/10 09:01:55;;;;;;;14.30;8.50;;;24.50;99.90;;;;;;5103147;28;20163;-71
2021/07/10 09:04:25;;;;;;;13.40;8.25;;;24.70;99.90;;;;;;5105258;28;20229;-71
2021/07/10 09:06:51;;;;;;;10.52;7.38;;;24.80;99.90;;;;;;5087332;28;20164;-71
2021/07/10 09:09:18;;;;;;;12.73;6.95;;;24.80;99.90;;;;;;5090488;28;20174;-70
2021/07/10 09:12:06;;;;;;;9.70;5.82;;;24.70;99.90;;;;;;5106826;28;20563;-70
2021/07/10 09:14:32;;;;;;;9.27;6.55;;;25.00;99.90;;;;;;5109310;28;20155;-71
2021/07/10 09:17:13;;;;;;;11.35;7.15;;;24.90;99.90;;;;;;5109434;28;20163;-70
2021/07/10 09:19:39;;;;;;;9.23;8.05;;;24.90;99.90;;;;;;5109306;28;20193;-70
2021/07/10 09:22:05;;;;;;;11.75;8.82;;;24.90;99.90;;;;;;5106746;28;20183;-71
2021/07/10 09:24:33;;;;;;;14.32;8.93;;;25.20;99.90;;;;;;5108846;28;20722;-72
2021/07/10 09:27:04;;;;;;;8.93;7.75;;;25.30;99.90;;;;;;5090733;28;20194;-71
2021/07/10 09:29:36;;;;;;;11.20;7.82;;;25.60;99.90;;;;;;5108985;28;20167;-70
2021/07/10 09:32:18;;;;;;;11.80;7.75;;;25.80;99.90;;;;;;5106463;28;20164;-71
2021/07/10 09:34:52;;;;;;;9.20;7.22;;;26.00;99.90;;;;;;5108933;28;20251;-70
2021/07/10 09:37:21;;;;;;;7.53;6.72;;;26.10;99.90;;;;;;5108826;28;20159;-70
2021/07/10 09:39:58;;;;;;;9.65;6.70;;;26.20;99.90;;;;;;5108480;28;20550;-70
2021/07/10 09:42:31;;;;;;;8.90;6.45;;;26.30;99.90;;;;;;5106008;28;20212;-70
2021/07/10 09:44:56;;;;;;;8.63;6.88;;;26.40;99.90;;;;;;5108885;28;20183;-70
2021/07/10 09:47:28;;;;;;;7.72;6.82;;;26.50;99.90;;;;;;5108602;28;20648;-71
2021/07/10 09:49:55;;;;;;;9.32;6.72;;;26.40;99.90;;;;;;5108715;28;20178;-70
2021/07/10 09:52:22;;;;;;;7.20;5.93;;;26.60;99.90;;;;;;5105891;28;20159;-70
2021/07/10 09:54:54;;;;;;;11.00;6.57;;;26.50;99.90;;;;;;5108071;28;20171;-70
2021/07/10 09:57:26;;;;;;;8.15;6.10;;;26.40;99.90;;;;;;5090005;28;20642;-70
2021/07/10 09:59:54;;;;;;;8.75;5.93;;;26.50;99.90;;;;;;5108274;28;20174;-70
2021/07/10 10:02:29;;;;;;;11.52;6.95;;;26.30;99.90;;;;;;5105588;28;20227;-70
2021/07/10 10:05:22;;;;;;;10.45;5.78;;;26.40;99.90;;;;;;5108254;28;20193;-71
2021/07/10 10:07:55;;;;;;;7.60;6.85;;;26.60;99.90;;;;;;5104017;28;20191;-70
2021/07/10 10:10:25;;;;;;;7.78;5.32;;;26.80;99.90;;;;;;5106678;28;20195;-71
2021/07/10 10:13:08;;;;;;;8.38;6.25;;;26.70;99.90;;;;;;5107168;28;20164;-70
2021/07/10 10:15:35;;;;;;;8.77;7.13;;;26.80;99.90;;;;;;5108093;28;20232;-71
2021/07/10 10:18:01;;;;;;;7.07;6.13;;;26.80;99.90;;;;;;5089992;28;20170;-70
2021/07/10 10:20:28;;;;;;;9.43;5.43;;;26.90;99.90;;;;;;5104758;28;20240;-70
2021/07/10 10:22:53;;;;;;;6.90;5.43;;;26.90;99.90;;;;;;5089016;28;20159;-70
2021/07/10 10:25:19;;;;;;;8.98;6.18;;;26.60;99.90;;;;;;5107603;28;20206;-70
2021/07/10 10:27:48;;;;;;;6.45;5.82;;;26.80;99.90;;;;;;5107925;28;20218;-70
2021/07/10 10:30:14;;;;;;;6.25;5.32;;;26.90;99.90;;;;;;5107103;28;20164;-70
2021/07/10 10:32:42;;;;;;;5.70;4.65;;;26.40;99.90;;;;;;5105958;28;20166;-70
2021/07/10 10:35:08;;;;;;;8.70;5.72;;;26.40;99.90;;;;;;5107638;28;20215;-71
2021/07/10 10:37:40;;;;;;;9.32;5.15;;;26.60;99.90;;;;;;5107922;28;20261;-70
2021/07/10 10:40:14;;;;;;;9.82;5.82;;;26.60;99.90;;;;;;5088869;28;20179;-69
2021/07/10 10:42:43;;;;;;;6.93;5.95;;;26.50;99.90;;;;;;5105613;28;20534;-69
2021/07/10 10:45:09;;;;;;;7.05;5.43;;;26.70;99.90;;;;;;5107515;28;20218;-69
2021/07/10 10:47:51;;;;;;;5.82;5.22;;;26.70;99.90;;;;;;5107527;28;20160;-70
2021/07/10 10:50:40;;;;;;;8.77;5.50;;;26.70;99.90;;;;;;5106481;28;20193;-69
2021/07/10 10:53:07;;;;;;;8.18;5.15;;;26.80;99.90;;;;;;5107148;28;20664;-70
2021/07/10 10:55:38;;;;;;;8.98;4.88;;;26.80;99.90;;;;;;5107486;28;20242;-70
2021/07/10 10:58:10;;;;;;;7.28;4.82;;;27.20;99.90;;;;;;5107405;28;20530;-69
2021/07/10 11:00:39;;;;;;;7.38;5.32;;;27.60;99.90;;;;;;5104496;28;20665;-69
2021/07/10 11:03:10;;;;;;;9.63;5.20;;;27.80;99.90;;;;;;5107268;28;20175;-69
2021/07/10 11:05:48;;;;;;;6.68;5.28;;;27.70;99.90;;;;;;5107340;28;20187;-69
2021/07/10 11:08:32;;;;;;;11.93;5.30;;;27.70;99.90;;;;;;5106692;28;20224;-69
2021/07/10 11:11:00;;;;;;;8.90;4.57;;;27.90;99.90;;;;;;5104294;28;20159;-69
2021/07/10 11:13:39;;;;;;;12.55;4.97;;;27.80;99.90;;;;;;5106880;28;20160;-70
2021/07/10 11:16:11;;;;;;;7.75;5.57;;;27.90;99.90;;;;;;5107013;28;20171;-70
2021/07/10 11:18:56;;;;;;;8.00;5.25;;;27.90;99.90;;;;;;5106853;28;20170;-70
2021/07/10 11:21:34;;;;;;;7.22;5.18;;;27.90;99.90;;;;;;5104147;28;20159;-69
2021/07/10 11:26:55;;;;;;;5.43;4.80;;;28.00;99.90;;;;;;5106835;28;20533;-70
2021/07/10 11:29:39;;;;;;;7.25;4.13;;;28.20;99.90;;;;;;5106522;28;20159;-70
2021/07/10 11:32:11;;;;;;;5.53;4.97;;;28.40;99.90;;;;;;5103648;28;20160;-70
2021/07/10 11:34:37;;;;;;;6.38;4.60;;;28.20;99.90;;;;;;5106228;28;20213;-70
2021/07/10 11:37:16;;;;;;;5.43;4.60;;;27.80;99.90;;;;;;5087943;28;20186;-69
2021/07/10 11:39:52;;;;;;;6.32;4.78;;;27.70;99.90;;;;;;5106288;28;20171;-70
2021/07/10 11:42:18;;;;;;;8.68;4.28;;;28.00;99.90;;;;;;5103791;28;20174;-70
2021/07/10 11:44:45;;;;;;;5.85;4.35;;;28.40;99.90;;;;;;5106425;28;20194;-70
2021/07/10 11:47:12;;;;;;;6.65;4.82;;;28.40;99.90;;;;;;5106259;28;20233;-70
2021/07/10 11:49:40;;;;;;;7.53;4.18;;;28.70;99.90;;;;;;5087964;28;20162;-71
2021/07/10 11:52:13;;;;;;;6.88;4.00;;;29.00;99.90;;;;;;5103652;28;20179;-70
2021/07/10 11:54:44;;;;;;;5.55;3.55;;;29.10;99.90;;;;;;5106080;28;20171;-68
2021/07/10 11:57:11;;;;;;;9.63;4.47;;;29.10;99.90;;;;;;5105909;28;20152;-69
2021/07/10 11:59:38;;;;;;;7.82;4.18;;;29.10;99.90;;;;;;5106115;28;20169;-72
2021/07/10 12:02:18;;;;;;;6.70;4.78;;;29.00;99.90;;;;;;5103781;28;20159;-69
2021/07/10 12:05:19;;;;;;;6.00;4.35;;;29.10;99.90;;;;;;5087909;28;20229;-68
2021/07/10 12:07:49;;;;;;;8.32;4.68;;;29.10;99.90;;;;;;5086887;28;20423;-68
2021/07/10 12:10:17;;;;;;;9.93;4.35;;;29.00;99.90;;;;;;5105151;28;20304;-68
2021/07/10 12:12:54;;;;;;;5.53;3.80;;;28.20;99.90;;;;;;5086308;28;20163;-68
2021/07/10 12:15:41;;;;;;;6.93;3.67;;;27.60;99.90;;;;;;5106038;28;20167;-68
2021/07/10 12:18:08;;;;;;;4.53;4.00;;;27.10;99.90;;;;;;5106044;28;20159;-68
2021/07/10 12:20:56;;;;;;;5.13;4.18;;;26.60;99.90;;;;;;5103340;28;20171;-68
2021/07/10 12:23:23;;;;;;;5.03;4.13;;;26.20;99.90;;;;;;5086349;28;20178;-68
2021/07/10 12:25:55;;;;;;;5.78;3.88;;;26.20;99.90;;;;;;5105754;28;20208;-68
2021/07/10 12:28:43;;;;;;;6.13;4.13;;;26.00;99.90;;;;;;5105616;28;20164;-68
2021/07/10 12:31:12;;;;;;;5.75;3.92;;;25.80;99.90;;;;;;5103096;28;20494;-68
2021/07/10 12:33:43;;;;;;;5.60;4.03;;;25.40;99.90;;;;;;5087148;28;20167;-68
2021/07/10 12:36:08;;;;;;;5.70;3.47;;;25.40;99.90;;;;;;5105590;28;20222;-68
2021/07/10 12:38:36;;;;;;;8.73;4.40;;;25.40;99.90;;;;;;5105286;28;20555;-67